createdAt,value
2023-01-28T00:00:54.906Z,102100.91
2023-01-28T00:03:21.432Z,102088.75
2023-01-28T00:05:47.774Z,102087.06
2023-01-28T00:08:14.770Z,102074.59
2023-01-28T00:10:43.091Z,102101.03
2023-01-28T00:13:14.487Z,102130.63
2023-01-28T00:15:41.012Z,102135.94
2023-01-28T00:18:07.373Z,102116.47
2023-01-28T00:20:35.298Z,102039.38
2023-01-28T00:23:03.092Z,102029.91
2023-01-28T00:25:29.673Z,102075.44
2023-01-28T00:27:56.088Z,102070.53
2023-01-28T00:30:22.630Z,101977.66
2023-01-28T00:32:49.179Z,102093.31
2023-01-28T00:35:16.144Z,102084.25
2023-01-28T00:37:45.673Z,102104.47
2023-01-28T00:40:12.529Z,102074.59
2023-01-28T00:42:38.900Z,102043.00
2023-01-28T00:45:05.591Z,102092.00
2023-01-28T00:47:31.906Z,102031.84
2023-01-28T00:49:58.320Z,102086.00
2023-01-28T00:52:24.629Z,101974.06
2023-01-28T00:54:51.010Z,102066.66
2023-01-28T00:57:17.380Z,102091.13
2023-01-28T00:59:43.808Z,102005.97
2023-01-28T01:02:12.978Z,102103.44
2023-01-28T01:04:41.014Z,101981.63
2023-01-28T01:07:07.396Z,102007.72
2023-01-28T01:09:33.792Z,102078.56
2023-01-28T01:12:00.162Z,102088.28
2023-01-28T01:14:26.519Z,102105.69
2023-01-28T01:16:52.890Z,102097.88
2023-01-28T01:19:19.248Z,102097.66
2023-01-28T01:21:50.298Z,102128.03
2023-01-28T01:24:16.849Z,102086.00
2023-01-28T01:26:43.249Z,102079.13
2023-01-28T01:29:09.820Z,102093.25
2023-01-28T01:31:36.379Z,102082.72
2023-01-28T01:34:02.793Z,102092.31
2023-01-28T01:36:29.216Z,102091.69
2023-01-28T01:38:55.845Z,102100.97
2023-01-28T01:41:33.367Z,102082.72
2023-01-28T01:44:05.692Z,102121.41
2023-01-28T01:46:39.872Z,102108.88
2023-01-28T01:49:11.539Z,102126.38
2023-01-28T01:51:37.907Z,102107.06
2023-01-28T01:54:05.352Z,102114.94
2023-01-28T01:56:38.532Z,102116.72
2023-01-28T01:59:08.361Z,101970.13
2023-01-28T02:01:34.699Z,102070.66
2023-01-28T02:04:07.174Z,102113.72
2023-01-28T02:06:36.206Z,102149.38
2023-01-28T02:09:03.383Z,101993.63
2023-01-28T02:11:33.439Z,102045.03
2023-01-28T02:14:04.250Z,102116.66
2023-01-28T02:16:32.464Z,102126.13
2023-01-28T02:18:58.906Z,102111.16
2023-01-28T02:21:31.319Z,102139.50
2023-01-28T02:24:21.837Z,102103.22
2023-01-28T02:27:14.591Z,102131.16
2023-01-28T02:29:55.995Z,102148.50
2023-01-28T02:32:29.661Z,102108.22
2023-01-28T02:35:18.361Z,102153.66
2023-01-28T02:37:53.553Z,102126.50
2023-01-28T02:40:25.018Z,102101.97
2023-01-28T02:42:51.498Z,102124.44
2023-01-28T02:45:48.602Z,102157.44
2023-01-28T02:48:16.591Z,102020.78
2023-01-28T02:51:04.462Z,102122.81
2023-01-28T02:53:43.928Z,102089.25
2023-01-28T02:56:30.766Z,102148.19
2023-01-28T02:59:28.114Z,102126.38
2023-01-28T03:02:16.997Z,102105.84
2023-01-28T03:04:49.930Z,102175.41
2023-01-28T03:07:18.757Z,102172.06
2023-01-28T03:09:48.518Z,102048.31
2023-01-28T03:12:46.173Z,102165.94
2023-01-28T03:16:07.031Z,102165.84
2023-01-28T03:19:10.230Z,102130.16
2023-01-28T03:22:01.541Z,102163.53
2023-01-28T03:24:51.860Z,102140.41
2023-01-28T03:27:43.728Z,102149.31
2023-01-28T03:30:36.528Z,102159.75
2023-01-28T03:33:23.282Z,102141.06
2023-01-28T03:36:08.517Z,102159.66
2023-01-28T03:38:42.099Z,102110.91
2023-01-28T03:41:11.395Z,102146.03
2023-01-28T03:43:38.192Z,102154.44
2023-01-28T03:46:06.269Z,102173.00
2023-01-28T03:48:32.737Z,102121.84
2023-01-28T03:51:00.381Z,102151.94
2023-01-28T03:53:28.117Z,102190.88
2023-01-28T03:55:56.477Z,102184.56
2023-01-28T03:58:26.998Z,102106.25
2023-01-28T04:00:54.370Z,102168.75
2023-01-28T04:03:22.000Z,102185.00
2023-01-28T04:06:06.590Z,102167.66
2023-01-28T04:08:33.163Z,102164.78
2023-01-28T04:11:15.373Z,102109.41
2023-01-28T04:13:46.363Z,102187.75
2023-01-28T04:16:15.498Z,102195.50
2023-01-28T04:18:42.991Z,102187.34
2023-01-28T04:21:09.869Z,102192.03
2023-01-28T04:23:36.262Z,102177.47
2023-01-28T04:26:04.042Z,102182.03
2023-01-28T04:28:30.491Z,102175.25
2023-01-28T04:30:56.981Z,102133.19
2023-01-28T04:33:23.477Z,102196.41
2023-01-28T04:35:49.803Z,102190.94
2023-01-28T04:38:16.151Z,102154.91
2023-01-28T04:40:42.511Z,102178.72
2023-01-28T04:43:09.065Z,102193.38
2023-01-28T04:45:35.394Z,102167.03
2023-01-28T04:48:01.804Z,102193.84
2023-01-28T04:50:28.169Z,102164.31
2023-01-28T04:52:54.487Z,102172.38
2023-01-28T04:55:20.832Z,102153.97
2023-01-28T04:57:48.620Z,102206.72
2023-01-28T05:00:15.298Z,102117.75
2023-01-28T05:02:41.709Z,102140.47
2023-01-28T05:05:08.974Z,102184.56
2023-01-28T05:07:36.036Z,102180.13
2023-01-28T05:10:02.676Z,102150.28
2023-01-28T05:12:30.290Z,102157.75
2023-01-28T05:14:56.633Z,102178.38
2023-01-28T05:17:22.986Z,102201.31
2023-01-28T05:19:49.409Z,102190.59
2023-01-28T05:22:15.765Z,102181.72
2023-01-28T05:24:42.127Z,102181.22
2023-01-28T05:27:08.527Z,102193.47
2023-01-28T05:29:34.915Z,102166.31
2023-01-28T05:32:01.314Z,102108.19
2023-01-28T05:34:27.640Z,102171.09
2023-01-28T05:36:54.005Z,102190.31
2023-01-28T05:39:20.363Z,102184.97
2023-01-28T05:41:46.662Z,102102.25
2023-01-28T05:44:13.091Z,102202.22
2023-01-28T05:46:45.184Z,102180.19
2023-01-28T05:49:13.411Z,102179.13
2023-01-28T05:51:40.110Z,102176.16
2023-01-28T05:54:07.610Z,102233.69
2023-01-28T05:56:34.989Z,102220.97
2023-01-28T05:59:01.311Z,102210.84
2023-01-28T06:01:27.725Z,102217.97
2023-01-28T06:03:54.179Z,102195.00
2023-01-28T06:06:20.707Z,102243.97
2023-01-28T06:08:47.137Z,102240.38
2023-01-28T06:11:13.508Z,102176.13
2023-01-28T06:13:41.610Z,102203.78
2023-01-28T06:16:08.761Z,102216.31
2023-01-28T06:18:35.301Z,102150.13
2023-01-28T06:21:01.657Z,102233.06
2023-01-28T06:23:28.001Z,102190.63
2023-01-28T06:25:55.542Z,102241.16
2023-01-28T06:28:22.408Z,102234.81
2023-01-28T06:30:49.623Z,102200.41
2023-01-28T06:33:16.085Z,102194.84
2023-01-28T06:35:42.821Z,102202.88
2023-01-28T06:38:09.461Z,102207.88
2023-01-28T06:40:35.906Z,102220.50
2023-01-28T06:43:02.601Z,102234.28
2023-01-28T06:45:29.294Z,102251.38
2023-01-28T06:47:55.626Z,102200.03
2023-01-28T06:50:21.950Z,102231.78
2023-01-28T06:52:48.258Z,102221.50
2023-01-28T06:55:14.608Z,102247.59
2023-01-28T06:57:41.698Z,102243.91
2023-01-28T07:00:10.547Z,102224.25
2023-01-28T07:02:37.358Z,102251.19
2023-01-28T07:05:04.725Z,102203.47
2023-01-28T07:07:33.474Z,102200.41
2023-01-28T07:09:59.872Z,102199.50
2023-01-28T07:12:26.195Z,102236.69
2023-01-28T07:14:52.632Z,102220.09
2023-01-28T07:17:19.150Z,102259.25
2023-01-28T07:19:45.549Z,102230.03
2023-01-28T07:22:11.922Z,102264.09
2023-01-28T07:24:38.292Z,102227.03
2023-01-28T07:27:04.664Z,102202.16
2023-01-28T07:29:30.999Z,102244.19
2023-01-28T07:31:57.365Z,102207.34
2023-01-28T07:34:23.750Z,102230.78
2023-01-28T07:36:50.172Z,102242.81
2023-01-28T07:39:16.504Z,102248.94
2023-01-28T07:41:43.158Z,102230.28
2023-01-28T07:44:09.531Z,102221.59
2023-01-28T07:46:35.881Z,102225.00
2023-01-28T07:49:02.256Z,102216.31
2023-01-28T07:51:28.566Z,102208.63
2023-01-28T07:53:54.963Z,102280.69
2023-01-28T07:56:21.282Z,102222.13
2023-01-28T07:58:49.999Z,102233.59
2023-01-28T08:01:16.374Z,102227.00
2023-01-28T08:03:42.722Z,102253.28
2023-01-28T08:06:09.151Z,102183.63
2023-01-28T08:08:35.494Z,102224.81
2023-01-28T08:11:11.744Z,102239.03
2023-01-28T08:13:38.104Z,102260.03
2023-01-28T08:16:04.958Z,102307.16
2023-01-28T08:18:31.947Z,102257.00
2023-01-28T08:20:59.474Z,102266.31
2023-01-28T08:23:27.135Z,102310.56
2023-01-28T08:25:53.972Z,102305.41
2023-01-28T08:28:21.571Z,102312.69
2023-01-28T08:30:48.044Z,102207.66
2023-01-28T08:33:16.034Z,102299.25
2023-01-28T08:35:42.571Z,102269.34
2023-01-28T08:38:11.695Z,102297.25
2023-01-28T08:40:38.124Z,102289.72
2023-01-28T08:43:05.457Z,102316.03
2023-01-28T08:45:32.168Z,102171.00
2023-01-28T08:48:04.166Z,102181.66
2023-01-28T08:50:36.420Z,102288.75
2023-01-28T08:53:06.634Z,102338.03
2023-01-28T08:55:34.098Z,102331.47
2023-01-28T08:58:05.873Z,102326.38
2023-01-28T09:00:33.647Z,102275.06
2023-01-28T09:03:00.136Z,102324.81
2023-01-28T09:05:26.759Z,102337.03
2023-01-28T09:07:53.216Z,102371.63
2023-01-28T09:10:23.060Z,102291.53
2023-01-28T09:12:49.382Z,102220.09
2023-01-28T09:15:15.854Z,102319.31
2023-01-28T09:17:42.311Z,102367.41
2023-01-28T09:20:09.246Z,102263.44
2023-01-28T09:22:35.769Z,102340.91
2023-01-28T09:25:02.135Z,102292.75
2023-01-28T09:27:28.585Z,102383.13
2023-01-28T09:29:54.915Z,102364.69
2023-01-28T09:32:21.265Z,102347.00
2023-01-28T09:34:47.677Z,102364.41
2023-01-28T09:37:14.565Z,102339.16
2023-01-28T09:39:41.002Z,102313.25
2023-01-28T09:42:42.128Z,102391.09
2023-01-28T09:45:17.118Z,102399.59
2023-01-28T09:47:59.994Z,102353.16
2023-01-28T09:50:39.709Z,102404.38
2023-01-28T09:53:13.621Z,102385.81
2023-01-28T09:55:44.480Z,102357.34
2023-01-28T09:58:15.686Z,102344.06
2023-01-28T10:01:12.110Z,102399.34
2023-01-28T10:03:44.446Z,102403.72
2023-01-28T10:06:42.834Z,102372.56
2023-01-28T10:09:28.138Z,102390.66
2023-01-28T10:12:04.827Z,102389.31
2023-01-28T10:14:58.399Z,102393.72
2023-01-28T10:17:50.251Z,102362.50
2023-01-28T10:20:26.981Z,102368.47
2023-01-28T10:23:52.791Z,102359.16
2023-01-28T10:26:25.155Z,102344.53
2023-01-28T10:28:59.834Z,102170.91
2023-01-28T10:31:32.262Z,102328.31
2023-01-28T10:33:59.567Z,102348.44
2023-01-28T10:36:26.390Z,102259.19
2023-01-28T10:38:52.831Z,102337.97
2023-01-28T10:41:21.591Z,102325.91
2023-01-28T10:43:49.573Z,102381.25
2023-01-28T10:46:22.116Z,102383.84
2023-01-28T10:48:56.545Z,102364.88
2023-01-28T10:51:39.925Z,102382.94
2023-01-28T10:54:24.310Z,102359.31
2023-01-28T10:56:53.452Z,102393.97
2023-01-28T10:59:27.356Z,102309.91
2023-01-28T11:01:57.350Z,102377.19
2023-01-28T11:04:30.242Z,102398.00
2023-01-28T11:07:01.063Z,102408.47
2023-01-28T11:09:33.323Z,102368.31
2023-01-28T11:12:14.309Z,102410.59
2023-01-28T11:14:51.192Z,102346.81
2023-01-28T11:17:19.273Z,102394.41
2023-01-28T11:19:46.190Z,102381.47
2023-01-28T11:22:39.571Z,102427.63
2023-01-28T11:25:19.683Z,102328.31
2023-01-28T11:27:51.351Z,102369.13
2023-01-28T11:30:40.615Z,102410.41
2023-01-28T11:33:23.893Z,102416.84
2023-01-28T11:36:03.976Z,102374.28
2023-01-28T11:38:30.479Z,102321.56
2023-01-28T11:40:58.634Z,102383.22
2023-01-28T11:43:27.976Z,102372.81
2023-01-28T11:46:13.062Z,102390.59
2023-01-28T11:48:50.424Z,102387.94
2023-01-28T11:51:30.141Z,102388.28
2023-01-28T11:54:16.241Z,102339.19
2023-01-28T11:56:52.058Z,102379.31
2023-01-28T11:59:33.275Z,102389.56
2023-01-28T12:02:24.582Z,102396.16
2023-01-28T12:05:10.028Z,102396.53
2023-01-28T12:07:52.298Z,102371.44
2023-01-28T12:10:27.258Z,102341.00
2023-01-28T12:13:34.164Z,102362.13
2023-01-28T12:16:22.010Z,102379.00
2023-01-28T12:18:57.467Z,102372.03
2023-01-28T12:21:49.551Z,102367.13
2023-01-28T12:24:39.422Z,102367.13
2023-01-28T12:27:44.218Z,102344.91
2023-01-28T12:30:51.065Z,102210.41
2023-01-28T12:33:23.448Z,102354.75
2023-01-28T12:36:23.971Z,102351.69
2023-01-28T12:39:15.120Z,102339.22
2023-01-28T12:41:50.511Z,102335.88
2023-01-28T12:44:35.644Z,102309.19
2023-01-28T12:47:08.202Z,102353.00
2023-01-28T12:49:40.030Z,102334.09
2023-01-28T12:52:24.837Z,102301.47
2023-01-28T12:55:16.201Z,102309.56
2023-01-28T12:57:43.787Z,102279.78
2023-01-28T13:00:30.021Z,102291.47
2023-01-28T13:03:10.821Z,102276.50
2023-01-28T13:05:46.254Z,102263.28
2023-01-28T13:08:26.061Z,102251.81
2023-01-28T13:10:53.803Z,102186.94
2023-01-28T13:13:20.154Z,102267.31
2023-01-28T13:15:47.300Z,102245.50
2023-01-28T13:18:33.894Z,102246.03
2023-01-28T13:21:02.211Z,102288.81
2023-01-28T13:23:32.174Z,102304.91
2023-01-28T13:26:29.316Z,102260.38
2023-01-28T13:29:16.576Z,102285.63
2023-01-28T13:31:45.608Z,102287.94
2023-01-28T13:34:36.294Z,102312.16
2023-01-28T13:37:27.784Z,102312.75
2023-01-28T13:40:02.144Z,102309.81
2023-01-28T13:42:30.442Z,102307.16
2023-01-28T13:45:08.660Z,102326.09
2023-01-28T13:47:37.488Z,102299.50
2023-01-28T13:50:15.418Z,102296.22
2023-01-28T13:52:53.582Z,102335.34
2023-01-28T13:55:42.425Z,102303.41
2023-01-28T13:58:46.065Z,102327.50
2023-01-28T14:01:40.302Z,102330.25
2023-01-28T14:04:45.201Z,102337.16
2023-01-28T14:07:39.681Z,102330.88
2023-01-28T14:10:24.831Z,102329.19
2023-01-28T14:13:06.982Z,102330.78
2023-01-28T14:16:06.287Z,102332.47
2023-01-28T14:18:38.599Z,102303.88
2023-01-28T14:21:18.415Z,102296.78
2023-01-28T14:23:49.039Z,102245.78
2023-01-28T14:26:35.812Z,102237.72
2023-01-28T14:29:10.966Z,102315.22
2023-01-28T14:31:39.193Z,102257.41
2023-01-28T14:34:12.745Z,102304.66
2023-01-28T14:36:45.269Z,102302.81
2023-01-28T14:39:30.991Z,102235.31
2023-01-28T14:42:01.788Z,102282.88
2023-01-28T14:44:31.161Z,102286.81
2023-01-28T14:47:16.220Z,102288.66
2023-01-28T14:50:07.391Z,102295.94
2023-01-28T14:52:55.661Z,102289.75
2023-01-28T14:55:56.073Z,102234.84
2023-01-28T14:58:27.641Z,102247.78
2023-01-28T15:00:56.758Z,102248.59
2023-01-28T15:03:25.319Z,102259.25
2023-01-28T15:06:04.029Z,102284.91
2023-01-28T15:08:32.227Z,102264.34
2023-01-28T15:11:00.705Z,102245.59
2023-01-28T15:13:30.788Z,102256.59
2023-01-28T15:16:00.686Z,102276.50
2023-01-28T15:18:33.943Z,102247.97
2023-01-28T15:21:01.833Z,102294.38
2023-01-28T15:23:33.285Z,102274.53
2023-01-28T15:26:04.354Z,102261.97
2023-01-28T15:28:33.046Z,102294.28
2023-01-28T15:30:59.837Z,102265.66
2023-01-28T15:33:26.709Z,102314.53
2023-01-28T15:35:55.318Z,102265.44
2023-01-28T15:38:22.649Z,102321.44
2023-01-28T15:40:56.324Z,102315.84
2023-01-28T15:43:26.929Z,102253.00
2023-01-28T15:45:55.934Z,102219.75
2023-01-28T15:48:25.296Z,102220.47
2023-01-28T15:51:01.402Z,102263.63
2023-01-28T15:53:42.023Z,102305.94
2023-01-28T15:56:11.027Z,102266.34
2023-01-28T15:58:41.585Z,102355.06
2023-01-28T16:01:08.034Z,102363.91
2023-01-28T16:03:39.398Z,102325.41
2023-01-28T16:06:13.370Z,102250.19
2023-01-28T16:08:58.739Z,102246.66
2023-01-28T16:11:30.184Z,102272.72
2023-01-28T16:13:57.801Z,102328.50
2023-01-28T16:16:34.183Z,102358.00
2023-01-28T16:19:04.099Z,102365.38
2023-01-28T16:21:45.389Z,102324.38
2023-01-28T16:24:27.308Z,102383.19
2023-01-28T16:26:59.241Z,102387.16
2023-01-28T16:29:29.267Z,102373.06
2023-01-28T16:31:59.619Z,102389.88
2023-01-28T16:34:27.651Z,102377.19
2023-01-28T16:36:58.286Z,102401.25
2023-01-28T16:39:24.695Z,102404.13
2023-01-28T16:41:51.501Z,102359.66
2023-01-28T16:44:17.852Z,102299.94
2023-01-28T16:46:44.415Z,102357.06
2023-01-28T16:49:10.809Z,102355.91
2023-01-28T16:51:40.697Z,102383.97
2023-01-28T16:54:07.116Z,102368.59
2023-01-28T16:56:45.314Z,102369.22
2023-01-28T16:59:12.614Z,102396.81
2023-01-28T17:01:39.549Z,102349.06
2023-01-28T17:04:11.567Z,102369.25
2023-01-28T17:06:39.157Z,102385.75
2023-01-28T17:09:05.855Z,102369.50
2023-01-28T17:11:33.348Z,102357.38
2023-01-28T17:14:00.441Z,102387.81
2023-01-28T17:16:27.331Z,102397.56
2023-01-28T17:18:54.422Z,102373.72
2023-01-28T17:21:21.300Z,102343.84
2023-01-28T17:23:47.761Z,102346.94
2023-01-28T17:26:15.949Z,102393.09
2023-01-28T17:28:42.927Z,102384.25
2023-01-28T17:31:14.102Z,102344.75
2023-01-28T17:33:41.517Z,102351.72
2023-01-28T17:36:08.490Z,102349.78
2023-01-28T17:38:34.930Z,102358.38
2023-01-28T17:41:08.053Z,102354.53
2023-01-28T17:43:34.973Z,102375.84
2023-01-28T17:46:09.609Z,102364.72
2023-01-28T17:48:36.011Z,102344.03
2023-01-28T17:51:02.358Z,102341.44
2023-01-28T17:53:28.751Z,102340.88
2023-01-28T17:55:55.251Z,102334.00
2023-01-28T17:58:21.605Z,102348.75
2023-01-28T18:00:48.072Z,102372.78
2023-01-28T18:03:15.787Z,102394.81
2023-01-28T18:05:42.386Z,102373.38
2023-01-28T18:08:09.432Z,102400.84
2023-01-28T18:10:36.007Z,102379.63
2023-01-28T18:13:02.586Z,102396.28
2023-01-28T18:15:28.976Z,102390.03
2023-01-28T18:17:55.282Z,102399.69
2023-01-28T18:20:21.627Z,102382.63
2023-01-28T18:22:47.992Z,102364.25
2023-01-28T18:25:17.155Z,102378.09
2023-01-28T18:27:44.557Z,102383.88
2023-01-28T18:30:11.471Z,102411.44
2023-01-28T18:32:37.810Z,102412.25
2023-01-28T18:35:06.438Z,102365.78
2023-01-28T18:37:32.907Z,102437.63
2023-01-28T18:39:59.300Z,102414.34
2023-01-28T18:42:25.720Z,102374.75
2023-01-28T18:44:52.050Z,102375.69
2023-01-28T18:47:18.514Z,102434.75
2023-01-28T18:49:44.926Z,102398.63
2023-01-28T18:52:11.243Z,102429.97
2023-01-28T18:54:37.664Z,102445.75
2023-01-28T18:57:04.978Z,102411.31
2023-01-28T18:59:32.118Z,102440.66
2023-01-28T19:01:58.474Z,102433.28
2023-01-28T19:04:24.895Z,102384.09
2023-01-28T19:06:55.468Z,102450.63
2023-01-28T19:09:21.859Z,102390.53
2023-01-28T19:11:50.172Z,102379.75
2023-01-28T19:14:17.301Z,102418.34
2023-01-28T19:16:44.267Z,102456.44
2023-01-28T19:19:10.929Z,102442.06
2023-01-28T19:21:37.895Z,102435.09
2023-01-28T19:24:09.396Z,102460.53
2023-01-28T19:26:36.835Z,102460.41
2023-01-28T19:29:06.794Z,102390.81
2023-01-28T19:31:33.244Z,102423.25
2023-01-28T19:34:00.622Z,102453.47
2023-01-28T19:36:29.295Z,102397.19
2023-01-28T19:39:00.387Z,102443.16
2023-01-28T19:41:28.314Z,102442.25
2023-01-28T19:43:55.769Z,102421.34
2023-01-28T19:46:22.403Z,102443.97
2023-01-28T19:48:48.792Z,102408.72
2023-01-28T19:51:16.064Z,102444.25
2023-01-28T19:53:44.225Z,102387.44
2023-01-28T19:56:14.197Z,102382.44
2023-01-28T19:58:43.269Z,102457.59
2023-01-28T20:01:12.296Z,102455.41
2023-01-28T20:03:39.189Z,102460.44
2023-01-28T20:06:08.227Z,102362.84
2023-01-28T20:08:34.574Z,102374.28
2023-01-28T20:11:17.913Z,102474.47
2023-01-28T20:13:46.285Z,102475.91
2023-01-28T20:16:21.510Z,102399.63
2023-01-28T20:18:53.361Z,102479.78
2023-01-28T20:21:20.243Z,102474.94
2023-01-28T20:23:48.108Z,102351.47
2023-01-28T20:26:15.130Z,102434.50
2023-01-28T20:28:41.732Z,102429.34
2023-01-28T20:31:09.944Z,102431.13
2023-01-28T20:33:36.870Z,102459.88
2023-01-28T20:36:05.504Z,102434.53
2023-01-28T20:38:35.870Z,102443.31
2023-01-28T20:41:10.837Z,102429.91
2023-01-28T20:43:38.723Z,102439.75
2023-01-28T20:46:08.225Z,102427.34
2023-01-28T20:48:34.707Z,102420.81
2023-01-28T20:51:16.040Z,102401.25
2023-01-28T20:53:43.119Z,102441.84
2023-01-28T20:56:11.117Z,102401.25
2023-01-28T20:58:37.455Z,102341.31
2023-01-28T21:01:04.541Z,102353.81
2023-01-28T21:03:31.462Z,102394.28
2023-01-28T21:05:57.833Z,102422.78
2023-01-28T21:08:24.242Z,102425.81
2023-01-28T21:10:50.679Z,102424.31
2023-01-28T21:13:17.152Z,102286.69
2023-01-28T21:15:54.847Z,102374.53
2023-01-28T21:18:22.121Z,102284.88
2023-01-28T21:20:48.565Z,102380.47
2023-01-28T21:23:15.734Z,102403.84
2023-01-28T21:25:43.065Z,102428.81
2023-01-28T21:28:10.950Z,102353.50
2023-01-28T21:30:38.202Z,102395.13
2023-01-28T21:33:04.649Z,102370.59
2023-01-28T21:35:31.189Z,102397.34
2023-01-28T21:37:57.588Z,102350.00
2023-01-28T21:40:23.941Z,102361.25
2023-01-28T21:42:54.097Z,102365.03
2023-01-28T21:45:20.709Z,102370.84
2023-01-28T21:47:47.070Z,102335.66
2023-01-28T21:50:13.675Z,102341.19
2023-01-28T21:52:40.498Z,102365.03
2023-01-28T21:55:07.214Z,102344.16
2023-01-28T21:57:33.540Z,102296.69
2023-01-28T22:00:00.140Z,102369.56
2023-01-28T22:02:26.567Z,102336.59
2023-01-28T22:04:53.028Z,102408.53
2023-01-28T22:07:20.057Z,102365.41
2023-01-28T22:09:47.400Z,102408.38
2023-01-28T22:12:15.132Z,102406.47
2023-01-28T22:14:43.278Z,102359.31
2023-01-28T22:17:11.608Z,102367.53
2023-01-28T22:19:39.212Z,102404.44
2023-01-28T22:22:07.061Z,102412.06
2023-01-28T22:24:33.515Z,102421.41
2023-01-28T22:26:59.962Z,102335.94
2023-01-28T22:29:26.853Z,102381.22
2023-01-28T22:31:53.953Z,102419.28
2023-01-28T22:34:21.137Z,102412.53
2023-01-28T22:36:47.845Z,102369.16
2023-01-28T22:39:15.939Z,102419.00
2023-01-28T22:41:43.819Z,102437.09
2023-01-28T22:44:10.765Z,102430.19
2023-01-28T22:46:37.411Z,102432.06
2023-01-28T22:49:03.966Z,102428.56
2023-01-28T22:51:33.205Z,102398.56
2023-01-28T22:53:59.716Z,102391.50
2023-01-28T22:56:27.986Z,102429.16
2023-01-28T22:58:55.930Z,102412.38
2023-01-28T23:01:22.786Z,102343.28
2023-01-28T23:03:51.380Z,102401.19
2023-01-28T23:06:20.114Z,102371.22
2023-01-28T23:08:47.512Z,102371.22
2023-01-28T23:11:15.330Z,102373.00
2023-01-28T23:14:01.721Z,102414.16
2023-01-28T23:16:49.566Z,102414.88
2023-01-28T23:19:35.474Z,102430.91
2023-01-28T23:22:20.722Z,102402.69
2023-01-28T23:24:47.105Z,102421.56
2023-01-28T23:27:13.418Z,102374.91
2023-01-28T23:29:39.791Z,102380.34
2023-01-28T23:32:10.705Z,102396.22
2023-01-28T23:34:44.371Z,102365.19
2023-01-28T23:37:15.030Z,102378.13
2023-01-28T23:39:42.577Z,102402.09
2023-01-28T23:42:11.516Z,102366.94
2023-01-28T23:44:37.827Z,102387.91
2023-01-28T23:47:04.205Z,102386.06
2023-01-28T23:49:30.675Z,102357.75
2023-01-28T23:51:57.005Z,102381.22
2023-01-28T23:54:23.323Z,102352.06
2023-01-28T23:56:49.727Z,102363.56
2023-01-28T23:59:16.227Z,102332.41
